sensor_id;sensor_type;location;lat;lon;timestamp;P1;durP1;ratioP1;P2;durP2;ratioP2
32297;SDS011;18782;48.984;8.548;2023-02-22T00:00:27;11.40;;;5.38;;
32297;SDS011;18782;48.984;8.548;2023-02-22T00:03:08;10.90;;;5.20;;
32297;SDS011;18782;48.984;8.548;2023-02-22T00:05:37;10.93;;;6.32;;
32297;SDS011;18782;48.984;8.548;2023-02-22T00:08:05;9.00;;;5.05;;
32297;SDS011;18782;48.984;8.548;2023-02-22T00:10:35;12.43;;;6.10;;
32297;SDS011;18782;48.984;8.548;2023-02-22T00:13:07;11.52;;;5.65;;
32297;SDS011;18782;48.984;8.548;2023-02-22T00:15:36;11.90;;;6.15;;
32297;SDS011;18782;48.984;8.548;2023-02-22T00:18:06;10.85;;;6.30;;
32297;SDS011;18782;48.984;8.548;2023-02-22T00:20:41;12.23;;;5.45;;
32297;SDS011;18782;48.984;8.548;2023-02-22T00:23:12;13.07;;;6.15;;
32297;SDS011;18782;48.984;8.548;2023-02-22T00:25:41;9.77;;;5.60;;
32297;SDS011;18782;48.984;8.548;2023-02-22T00:28:10;11.73;;;6.38;;
32297;SDS011;18782;48.984;8.548;2023-02-22T00:30:37;10.85;;;5.78;;
32297;SDS011;18782;48.984;8.548;2023-02-22T00:33:09;12.20;;;6.15;;
32297;SDS011;18782;48.984;8.548;2023-02-22T00:35:37;35.17;;;15.13;;
32297;SDS011;18782;48.984;8.548;2023-02-22T00:38:05;45.22;;;19.92;;
32297;SDS011;18782;48.984;8.548;2023-02-22T00:40:34;20.00;;;9.23;;
32297;SDS011;18782;48.984;8.548;2023-02-22T00:43:03;14.23;;;6.28;;
32297;SDS011;18782;48.984;8.548;2023-02-22T00:45:33;12.60;;;6.32;;
32297;SDS011;18782;48.984;8.548;2023-02-22T00:48:03;12.32;;;6.43;;
32297;SDS011;18782;48.984;8.548;2023-02-22T00:50:32;8.43;;;5.47;;
32297;SDS011;18782;48.984;8.548;2023-02-22T00:53:00;10.77;;;6.25;;
32297;SDS011;18782;48.984;8.548;2023-02-22T00:55:31;10.43;;;6.35;;
32297;SDS011;18782;48.984;8.548;2023-02-22T00:58:00;9.27;;;5.85;;
32297;SDS011;18782;48.984;8.548;2023-02-22T01:00:29;10.38;;;5.40;;
32297;SDS011;18782;48.984;8.548;2023-02-22T01:02:59;9.70;;;5.75;;
32297;SDS011;18782;48.984;8.548;2023-02-22T01:05:27;10.60;;;4.88;;
32297;SDS011;18782;48.984;8.548;2023-02-22T01:07:56;9.98;;;5.25;;
32297;SDS011;18782;48.984;8.548;2023-02-22T01:10:26;8.82;;;5.05;;
32297;SDS011;18782;48.984;8.548;2023-02-22T01:12:55;8.98;;;5.57;;
32297;SDS011;18782;48.984;8.548;2023-02-22T01:15:24;7.93;;;5.38;;
32297;SDS011;18782;48.984;8.548;2023-02-22T01:17:55;10.48;;;5.25;;
32297;SDS011;18782;48.984;8.548;2023-02-22T01:20:26;10.43;;;5.43;;
32297;SDS011;18782;48.984;8.548;2023-02-22T01:22:55;11.48;;;5.00;;
32297;SDS011;18782;48.984;8.548;2023-02-22T01:25:25;11.05;;;5.43;;
32297;SDS011;18782;48.984;8.548;2023-02-22T01:27:55;8.45;;;4.65;;
32297;SDS011;18782;48.984;8.548;2023-02-22T01:30:24;9.40;;;5.03;;
32297;SDS011;18782;48.984;8.548;2023-02-22T01:32:56;9.15;;;4.65;;
32297;SDS011;18782;48.984;8.548;2023-02-22T01:35:25;9.60;;;4.93;;
32297;SDS011;18782;48.984;8.548;2023-02-22T01:37:56;10.02;;;4.88;;
32297;SDS011;18782;48.984;8.548;2023-02-22T01:40:25;8.57;;;5.13;;
32297;SDS011;18782;48.984;8.548;2023-02-22T01:42:55;8.68;;;4.97;;
32297;SDS011;18782;48.984;8.548;2023-02-22T01:45:43;10.05;;;5.45;;
32297;SDS011;18782;48.984;8.548;2023-02-22T01:48:16;9.57;;;4.90;;
32297;SDS011;18782;48.984;8.548;2023-02-22T01:50:53;8.52;;;4.75;;
32297;SDS011;18782;48.984;8.548;2023-02-22T01:53:24;8.38;;;5.15;;
32297;SDS011;18782;48.984;8.548;2023-02-22T01:55:58;7.80;;;4.75;;
32297;SDS011;18782;48.984;8.548;2023-02-22T01:58:27;8.02;;;4.72;;
32297;SDS011;18782;48.984;8.548;2023-02-22T02:00:57;9.65;;;5.03;;
32297;SDS011;18782;48.984;8.548;2023-02-22T02:03:27;11.05;;;4.78;;
32297;SDS011;18782;48.984;8.548;2023-02-22T02:08:51;8.20;;;4.93;;
32297;SDS011;18782;48.984;8.548;2023-02-22T02:11:25;8.95;;;4.88;;
32297;SDS011;18782;48.984;8.548;2023-02-22T02:13:57;7.95;;;4.55;;
32297;SDS011;18782;48.984;8.548;2023-02-22T02:16:30;8.75;;;4.60;;
32297;SDS011;18782;48.984;8.548;2023-02-22T02:19:07;9.27;;;5.22;;
32297;SDS011;18782;48.984;8.548;2023-02-22T02:21:44;8.80;;;4.88;;
32297;SDS011;18782;48.984;8.548;2023-02-22T02:24:38;8.55;;;4.43;;
32297;SDS011;18782;48.984;8.548;2023-02-22T02:27:25;13.27;;;5.60;;
32297;SDS011;18782;48.984;8.548;2023-02-22T02:30:10;9.23;;;4.68;;
32297;SDS011;18782;48.984;8.548;2023-02-22T02:32:55;8.77;;;4.80;;
32297;SDS011;18782;48.984;8.548;2023-02-22T02:35:30;7.35;;;4.70;;
32297;SDS011;18782;48.984;8.548;2023-02-22T02:38:08;8.73;;;4.80;;
32297;SDS011;18782;48.984;8.548;2023-02-22T02:40:40;10.13;;;5.43;;
32297;SDS011;18782;48.984;8.548;2023-02-22T02:43:16;8.50;;;4.70;;
32297;SDS011;18782;48.984;8.548;2023-02-22T02:45:50;8.90;;;4.95;;
32297;SDS011;18782;48.984;8.548;2023-02-22T02:48:26;8.43;;;5.07;;
32297;SDS011;18782;48.984;8.548;2023-02-22T02:50:55;8.00;;;4.38;;
32297;SDS011;18782;48.984;8.548;2023-02-22T02:53:29;7.25;;;4.18;;
32297;SDS011;18782;48.984;8.548;2023-02-22T02:56:00;8.05;;;4.00;;
32297;SDS011;18782;48.984;8.548;2023-02-22T02:58:28;7.88;;;4.60;;
32297;SDS011;18782;48.984;8.548;2023-02-22T03:00:56;9.05;;;5.10;;
32297;SDS011;18782;48.984;8.548;2023-02-22T03:03:34;9.30;;;4.43;;
32297;SDS011;18782;48.984;8.548;2023-02-22T03:06:24;6.95;;;4.40;;
32297;SDS011;18782;48.984;8.548;2023-02-22T03:09:24;9.55;;;4.38;;
32297;SDS011;18782;48.984;8.548;2023-02-22T03:12:03;8.02;;;4.32;;
32297;SDS011;18782;48.984;8.548;2023-02-22T03:14:42;6.88;;;4.22;;
32297;SDS011;18782;48.984;8.548;2023-02-22T03:17:22;8.15;;;4.55;;
32297;SDS011;18782;48.984;8.548;2023-02-22T03:19:58;8.20;;;4.47;;
32297;SDS011;18782;48.984;8.548;2023-02-22T03:22:36;8.00;;;4.82;;
32297;SDS011;18782;48.984;8.548;2023-02-22T03:25:10;8.38;;;4.15;;
32297;SDS011;18782;48.984;8.548;2023-02-22T03:27:42;8.80;;;4.47;;
32297;SDS011;18782;48.984;8.548;2023-02-22T03:30:15;7.10;;;4.20;;
32297;SDS011;18782;48.984;8.548;2023-02-22T03:32:50;8.30;;;4.50;;
32297;SDS011;18782;48.984;8.548;2023-02-22T03:35:23;7.47;;;4.20;;
32297;SDS011;18782;48.984;8.548;2023-02-22T03:37:56;6.93;;;4.13;;
32297;SDS011;18782;48.984;8.548;2023-02-22T03:40:29;7.10;;;4.20;;
32297;SDS011;18782;48.984;8.548;2023-02-22T03:43:01;7.03;;;3.95;;
32297;SDS011;18782;48.984;8.548;2023-02-22T03:45:37;9.98;;;4.20;;
32297;SDS011;18782;48.984;8.548;2023-02-22T03:48:10;6.30;;;3.88;;
32297;SDS011;18782;48.984;8.548;2023-02-22T03:50:45;5.95;;;3.70;;
32297;SDS011;18782;48.984;8.548;2023-02-22T03:53:15;7.75;;;4.50;;
32297;SDS011;18782;48.984;8.548;2023-02-22T03:55:47;7.65;;;4.13;;
32297;SDS011;18782;48.984;8.548;2023-02-22T03:58:19;8.63;;;4.45;;
32297;SDS011;18782;48.984;8.548;2023-02-22T04:00:49;9.35;;;4.70;;
32297;SDS011;18782;48.984;8.548;2023-02-22T04:03:18;6.90;;;4.03;;
32297;SDS011;18782;48.984;8.548;2023-02-22T04:05:47;7.13;;;4.15;;
32297;SDS011;18782;48.984;8.548;2023-02-22T04:08:19;6.82;;;4.07;;
32297;SDS011;18782;48.984;8.548;2023-02-22T04:10:47;8.02;;;3.75;;
32297;SDS011;18782;48.984;8.548;2023-02-22T04:13:19;4.93;;;3.40;;
32297;SDS011;18782;48.984;8.548;2023-02-22T04:15:50;8.85;;;4.00;;
32297;SDS011;18782;48.984;8.548;2023-02-22T04:18:17;7.38;;;3.40;;
32297;SDS011;18782;48.984;8.548;2023-02-22T04:20:48;7.45;;;3.60;;
32297;SDS011;18782;48.984;8.548;2023-02-22T04:23:26;10.70;;;4.20;;
32297;SDS011;18782;48.984;8.548;2023-02-22T04:25:54;7.80;;;3.97;;
32297;SDS011;18782;48.984;8.548;2023-02-22T04:28:22;7.47;;;4.03;;
32297;SDS011;18782;48.984;8.548;2023-02-22T04:30:59;5.35;;;3.90;;
32297;SDS011;18782;48.984;8.548;2023-02-22T04:33:28;6.75;;;3.70;;
32297;SDS011;18782;48.984;8.548;2023-02-22T04:35:57;8.20;;;4.40;;
32297;SDS011;18782;48.984;8.548;2023-02-22T04:38:24;7.60;;;4.07;;
32297;SDS011;18782;48.984;8.548;2023-02-22T04:40:55;9.98;;;4.93;;
32297;SDS011;18782;48.984;8.548;2023-02-22T04:43:23;8.85;;;4.40;;
32297;SDS011;18782;48.984;8.548;2023-02-22T04:45:54;8.23;;;3.75;;
32297;SDS011;18782;48.984;8.548;2023-02-22T04:48:22;7.40;;;3.80;;
32297;SDS011;18782;48.984;8.548;2023-02-22T04:50:50;9.77;;;4.10;;
32297;SDS011;18782;48.984;8.548;2023-02-22T04:53:19;7.88;;;4.00;;
32297;SDS011;18782;48.984;8.548;2023-02-22T04:55:47;8.25;;;3.88;;
32297;SDS011;18782;48.984;8.548;2023-02-22T04:58:15;6.75;;;3.85;;
32297;SDS011;18782;48.984;8.548;2023-02-22T05:00:43;6.10;;;4.13;;
32297;SDS011;18782;48.984;8.548;2023-02-22T05:03:11;6.82;;;3.95;;
32297;SDS011;18782;48.984;8.548;2023-02-22T05:05:38;7.20;;;4.25;;
32297;SDS011;18782;48.984;8.548;2023-02-22T05:08:06;7.40;;;4.28;;
32297;SDS011;18782;48.984;8.548;2023-02-22T05:10:35;7.57;;;4.20;;
32297;SDS011;18782;48.984;8.548;2023-02-22T05:13:02;7.35;;;4.50;;
32297;SDS011;18782;48.984;8.548;2023-02-22T05:15:31;10.82;;;5.07;;
32297;SDS011;18782;48.984;8.548;2023-02-22T05:17:58;9.25;;;4.38;;
32297;SDS011;18782;48.984;8.548;2023-02-22T05:20:27;7.95;;;4.00;;
32297;SDS011;18782;48.984;8.548;2023-02-22T05:22:57;9.77;;;4.60;;
32297;SDS011;18782;48.984;8.548;2023-02-22T05:25:26;8.63;;;4.25;;
32297;SDS011;18782;48.984;8.548;2023-02-22T05:27:56;8.77;;;4.75;;
32297;SDS011;18782;48.984;8.548;2023-02-22T05:30:26;9.05;;;4.60;;
32297;SDS011;18782;48.984;8.548;2023-02-22T05:32:56;7.93;;;4.70;;
32297;SDS011;18782;48.984;8.548;2023-02-22T05:35:24;9.50;;;4.95;;
32297;SDS011;18782;48.984;8.548;2023-02-22T05:37:53;8.77;;;4.70;;
32297;SDS011;18782;48.984;8.548;2023-02-22T05:40:21;11.18;;;4.90;;
32297;SDS011;18782;48.984;8.548;2023-02-22T05:42:51;8.75;;;4.78;;
32297;SDS011;18782;48.984;8.548;2023-02-22T05:45:23;9.82;;;4.50;;
32297;SDS011;18782;48.984;8.548;2023-02-22T05:47:52;7.68;;;4.13;;
32297;SDS011;18782;48.984;8.548;2023-02-22T05:50:20;8.25;;;4.68;;
32297;SDS011;18782;48.984;8.548;2023-02-22T05:52:50;12.80;;;5.63;;
32297;SDS011;18782;48.984;8.548;2023-02-22T05:55:18;21.20;;;11.75;;
32297;SDS011;18782;48.984;8.548;2023-02-22T05:57:49;8.35;;;5.03;;
32297;SDS011;18782;48.984;8.548;2023-02-22T06:00:17;8.43;;;4.72;;
32297;SDS011;18782;48.984;8.548;2023-02-22T06:02:53;7.10;;;4.20;;
32297;SDS011;18782;48.984;8.548;2023-02-22T06:05:21;5.30;;;3.13;;
32297;SDS011;18782;48.984;8.548;2023-02-22T06:07:49;9.57;;;4.65;;
32297;SDS011;18782;48.984;8.548;2023-02-22T06:10:17;7.18;;;4.00;;
32297;SDS011;18782;48.984;8.548;2023-02-22T06:12:45;6.00;;;3.70;;
32297;SDS011;18782;48.984;8.548;2023-02-22T06:15:13;12.88;;;5.40;;
32297;SDS011;18782;48.984;8.548;2023-02-22T06:17:41;8.77;;;5.32;;
32297;SDS011;18782;48.984;8.548;2023-02-22T06:20:10;7.95;;;4.43;;
32297;SDS011;18782;48.984;8.548;2023-02-22T06:22:41;8.93;;;4.70;;
32297;SDS011;18782;48.984;8.548;2023-02-22T06:25:12;7.78;;;4.00;;
32297;SDS011;18782;48.984;8.548;2023-02-22T06:27:40;5.35;;;3.90;;
32297;SDS011;18782;48.984;8.548;2023-02-22T06:30:08;5.47;;;3.70;;
32297;SDS011;18782;48.984;8.548;2023-02-22T06:32:38;7.22;;;4.35;;
32297;SDS011;18782;48.984;8.548;2023-02-22T06:35:06;6.35;;;4.30;;
32297;SDS011;18782;48.984;8.548;2023-02-22T06:37:36;7.38;;;4.30;;
32297;SDS011;18782;48.984;8.548;2023-02-22T06:40:04;10.95;;;4.60;;
32297;SDS011;18782;48.984;8.548;2023-02-22T06:42:32;8.98;;;3.58;;
32297;SDS011;18782;48.984;8.548;2023-02-22T06:45:00;6.80;;;3.72;;
32297;SDS011;18782;48.984;8.548;2023-02-22T06:47:28;8.70;;;4.50;;
32297;SDS011;18782;48.984;8.548;2023-02-22T06:49:56;7.10;;;4.10;;
32297;SDS011;18782;48.984;8.548;2023-02-22T06:52:24;7.45;;;4.03;;
32297;SDS011;18782;48.984;8.548;2023-02-22T06:54:53;9.48;;;4.22;;
32297;SDS011;18782;48.984;8.548;2023-02-22T06:57:21;7.38;;;4.32;;
32297;SDS011;18782;48.984;8.548;2023-02-22T06:59:49;16.17;;;7.55;;
32297;SDS011;18782;48.984;8.548;2023-02-22T07:02:16;14.60;;;7.93;;
32297;SDS011;18782;48.984;8.548;2023-02-22T07:04:44;9.07;;;4.60;;
32297;SDS011;18782;48.984;8.548;2023-02-22T07:07:11;8.65;;;4.78;;
32297;SDS011;18782;48.984;8.548;2023-02-22T07:09:39;9.55;;;4.50;;
32297;SDS011;18782;48.984;8.548;2023-02-22T07:12:10;11.30;;;5.25;;
32297;SDS011;18782;48.984;8.548;2023-02-22T07:14:38;8.07;;;4.50;;
32297;SDS011;18782;48.984;8.548;2023-02-22T07:17:05;9.30;;;4.70;;
32297;SDS011;18782;48.984;8.548;2023-02-22T07:19:33;9.63;;;5.20;;
32297;SDS011;18782;48.984;8.548;2023-02-22T07:22:01;8.77;;;4.45;;
32297;SDS011;18782;48.984;8.548;2023-02-22T07:24:28;10.23;;;5.05;;
32297;SDS011;18782;48.984;8.548;2023-02-22T07:26:56;6.60;;;3.90;;
32297;SDS011;18782;48.984;8.548;2023-02-22T07:29:25;5.47;;;3.85;;
32297;SDS011;18782;48.984;8.548;2023-02-22T07:31:52;5.97;;;3.88;;
32297;SDS011;18782;48.984;8.548;2023-02-22T07:34:20;8.55;;;4.53;;
32297;SDS011;18782;48.984;8.548;2023-02-22T07:36:47;6.57;;;3.95;;
32297;SDS011;18782;48.984;8.548;2023-02-22T07:39:15;8.43;;;4.20;;
32297;SDS011;18782;48.984;8.548;2023-02-22T07:41:42;5.75;;;3.92;;
32297;SDS011;18782;48.984;8.548;2023-02-22T07:44:20;9.27;;;4.25;;
32297;SDS011;18782;48.984;8.548;2023-02-22T07:46:49;9.40;;;3.90;;
32297;SDS011;18782;48.984;8.548;2023-02-22T07:49:17;8.05;;;3.95;;
32297;SDS011;18782;48.984;8.548;2023-02-22T07:51:45;9.25;;;3.65;;
32297;SDS011;18782;48.984;8.548;2023-02-22T07:54:12;7.13;;;3.75;;
32297;SDS011;18782;48.984;8.548;2023-02-22T07:56:43;6.75;;;3.70;;
32297;SDS011;18782;48.984;8.548;2023-02-22T07:59:11;7.45;;;3.92;;
32297;SDS011;18782;48.984;8.548;2023-02-22T08:01:39;9.25;;;4.53;;
32297;SDS011;18782;48.984;8.548;2023-02-22T08:04:08;6.55;;;4.03;;
32297;SDS011;18782;48.984;8.548;2023-02-22T08:06:36;6.68;;;3.90;;
32297;SDS011;18782;48.984;8.548;2023-02-22T08:09:03;7.00;;;4.47;;
32297;SDS011;18782;48.984;8.548;2023-02-22T08:11:31;8.93;;;4.60;;
32297;SDS011;18782;48.984;8.548;2023-02-22T08:13:59;6.63;;;3.92;;
32297;SDS011;18782;48.984;8.548;2023-02-22T08:20:39;7.53;;;4.30;;
32297;SDS011;18782;48.984;8.548;2023-02-22T08:23:09;6.97;;;4.43;;
32297;SDS011;18782;48.984;8.548;2023-02-22T08:25:38;8.00;;;4.28;;
32297;SDS011;18782;48.984;8.548;2023-02-22T08:28:07;8.82;;;5.05;;
32297;SDS011;18782;48.984;8.548;2023-02-22T08:30:36;9.65;;;5.43;;
32297;SDS011;18782;48.984;8.548;2023-02-22T08:33:05;9.95;;;5.05;;
32297;SDS011;18782;48.984;8.548;2023-02-22T08:35:33;8.65;;;5.03;;
32297;SDS011;18782;48.984;8.548;2023-02-22T08:38:03;7.50;;;4.38;;
32297;SDS011;18782;48.984;8.548;2023-02-22T08:40:33;6.78;;;4.38;;
32297;SDS011;18782;48.984;8.548;2023-02-22T08:43:02;9.90;;;4.88;;
32297;SDS011;18782;48.984;8.548;2023-02-22T08:45:31;8.75;;;4.60;;
32297;SDS011;18782;48.984;8.548;2023-02-22T08:48:00;8.43;;;3.97;;
32297;SDS011;18782;48.984;8.548;2023-02-22T08:50:29;7.90;;;4.70;;
32297;SDS011;18782;48.984;8.548;2023-02-22T08:52:59;9.82;;;4.43;;
32297;SDS011;18782;48.984;8.548;2023-02-22T08:55:31;8.65;;;4.43;;
32297;SDS011;18782;48.984;8.548;2023-02-22T08:58:03;7.65;;;4.30;;
32297;SDS011;18782;48.984;8.548;2023-02-22T09:00:35;6.18;;;4.07;;
32297;SDS011;18782;48.984;8.548;2023-02-22T09:03:05;6.70;;;4.20;;
32297;SDS011;18782;48.984;8.548;2023-02-22T09:05:33;6.80;;;3.80;;
32297;SDS011;18782;48.984;8.548;2023-02-22T09:08:02;8.30;;;4.70;;
32297;SDS011;18782;48.984;8.548;2023-02-22T09:10:32;8.57;;;4.57;;
32297;SDS011;18782;48.984;8.548;2023-02-22T09:13:00;8.35;;;4.75;;
32297;SDS011;18782;48.984;8.548;2023-02-22T09:15:29;9.13;;;4.72;;
32297;SDS011;18782;48.984;8.548;2023-02-22T09:17:58;7.05;;;4.63;;
32297;SDS011;18782;48.984;8.548;2023-02-22T09:20:26;9.32;;;4.78;;
32297;SDS011;18782;48.984;8.548;2023-02-22T09:22:54;7.55;;;4.10;;
32297;SDS011;18782;48.984;8.548;2023-02-22T09:25:22;10.00;;;3.85;;
32297;SDS011;18782;48.984;8.548;2023-02-22T09:27:51;6.72;;;3.85;;
32297;SDS011;18782;48.984;8.548;2023-02-22T09:30:22;7.85;;;3.63;;
32297;SDS011;18782;48.984;8.548;2023-02-22T09:32:51;5.80;;;3.45;;
32297;SDS011;18782;48.984;8.548;2023-02-22T09:35:21;6.43;;;3.70;;
32297;SDS011;18782;48.984;8.548;2023-02-22T09:37:53;5.10;;;3.38;;
32297;SDS011;18782;48.984;8.548;2023-02-22T09:40:21;6.55;;;3.38;;
32297;SDS011;18782;48.984;8.548;2023-02-22T09:43:00;7.22;;;3.70;;
32297;SDS011;18782;48.984;8.548;2023-02-22T09:45:35;6.57;;;3.08;;
32297;SDS011;18782;48.984;8.548;2023-02-22T09:48:13;4.75;;;3.03;;
32297;SDS011;18782;48.984;8.548;2023-02-22T09:50:47;8.43;;;3.60;;
32297;SDS011;18782;48.984;8.548;2023-02-22T09:53:19;5.22;;;3.05;;
32297;SDS011;18782;48.984;8.548;2023-02-22T09:55:55;5.63;;;3.03;;
32297;SDS011;18782;48.984;8.548;2023-02-22T09:58:30;7.32;;;2.80;;
32297;SDS011;18782;48.984;8.548;2023-02-22T10:03:35;4.53;;;2.85;;
32297;SDS011;18782;48.984;8.548;2023-02-22T10:06:14;6.63;;;3.20;;
32297;SDS011;18782;48.984;8.548;2023-02-22T10:08:44;5.55;;;3.40;;
32297;SDS011;18782;48.984;8.548;2023-02-22T10:11:15;5.72;;;3.75;;
32297;SDS011;18782;48.984;8.548;2023-02-22T10:13:57;5.35;;;3.08;;
32297;SDS011;18782;48.984;8.548;2023-02-22T10:16:35;5.68;;;3.70;;
32297;SDS011;18782;48.984;8.548;2023-02-22T10:19:20;6.57;;;3.28;;
32297;SDS011;18782;48.984;8.548;2023-02-22T10:22:05;5.75;;;3.63;;
32297;SDS011;18782;48.984;8.548;2023-02-22T10:24:47;8.10;;;3.63;;
32297;SDS011;18782;48.984;8.548;2023-02-22T10:27:21;7.53;;;3.97;;
32297;SDS011;18782;48.984;8.548;2023-02-22T10:29:59;7.25;;;3.20;;
32297;SDS011;18782;48.984;8.548;2023-02-22T10:32:50;4.32;;;2.42;;
32297;SDS011;18782;48.984;8.548;2023-02-22T10:35:25;5.35;;;2.60;;
32297;SDS011;18782;48.984;8.548;2023-02-22T10:37:56;4.72;;;2.47;;
32297;SDS011;18782;48.984;8.548;2023-02-22T10:40:26;4.68;;;2.22;;
32297;SDS011;18782;48.984;8.548;2023-02-22T10:43:00;6.20;;;2.92;;
32297;SDS011;18782;48.984;8.548;2023-02-22T10:45:31;5.97;;;2.90;;
32297;SDS011;18782;48.984;8.548;2023-02-22T10:48:03;4.88;;;2.92;;
32297;SDS011;18782;48.984;8.548;2023-02-22T10:50:37;7.82;;;3.20;;
32297;SDS011;18782;48.984;8.548;2023-02-22T10:53:06;8.95;;;4.07;;
32297;SDS011;18782;48.984;8.548;2023-02-22T10:55:34;7.70;;;4.07;;
32297;SDS011;18782;48.984;8.548;2023-02-22T10:58:03;6.97;;;3.97;;
32297;SDS011;18782;48.984;8.548;2023-02-22T11:00:35;6.57;;;3.97;;
32297;SDS011;18782;48.984;8.548;2023-02-22T11:03:13;10.60;;;7.13;;
32297;SDS011;18782;48.984;8.548;2023-02-22T11:05:43;8.13;;;4.50;;
32297;SDS011;18782;48.984;8.548;2023-02-22T11:08:17;15.05;;;8.85;;
32297;SDS011;18782;48.984;8.548;2023-02-22T11:10:51;7.93;;;5.05;;
32297;SDS011;18782;48.984;8.548;2023-02-22T11:13:24;9.18;;;5.10;;
32297;SDS011;18782;48.984;8.548;2023-02-22T11:15:57;9.73;;;5.25;;
32297;SDS011;18782;48.984;8.548;2023-02-22T11:18:27;9.85;;;5.43;;
32297;SDS011;18782;48.984;8.548;2023-02-22T11:20:58;8.73;;;5.60;;
32297;SDS011;18782;48.984;8.548;2023-02-22T11:23:27;9.20;;;5.38;;
32297;SDS011;18782;48.984;8.548;2023-02-22T11:25:59;8.48;;;4.60;;
32297;SDS011;18782;48.984;8.548;2023-02-22T11:28:30;10.13;;;5.40;;
32297;SDS011;18782;48.984;8.548;2023-02-22T11:31:08;9.35;;;5.40;;
32297;SDS011;18782;48.984;8.548;2023-02-22T11:33:51;11.35;;;5.50;;
32297;SDS011;18782;48.984;8.548;2023-02-22T11:36:30;12.88;;;5.80;;
32297;SDS011;18782;48.984;8.548;2023-02-22T11:39:03;8.25;;;5.35;;
32297;SDS011;18782;48.984;8.548;2023-02-22T11:41:32;11.95;;;5.75;;
32297;SDS011;18782;48.984;8.548;2023-02-22T11:44:19;11.77;;;5.65;;
32297;SDS011;18782;48.984;8.548;2023-02-22T11:46:51;13.57;;;5.68;;
32297;SDS011;18782;48.984;8.548;2023-02-22T11:49:22;7.20;;;4.75;;
32297;SDS011;18782;48.984;8.548;2023-02-22T11:51:57;8.43;;;5.35;;
32297;SDS011;18782;48.984;8.548;2023-02-22T11:54:46;8.60;;;5.15;;
32297;SDS011;18782;48.984;8.548;2023-02-22T11:57:33;8.23;;;5.43;;
32297;SDS011;18782;48.984;8.548;2023-02-22T12:00:14;7.90;;;5.00;;
32297;SDS011;18782;48.984;8.548;2023-02-22T12:03:02;9.23;;;5.18;;
32297;SDS011;18782;48.984;8.548;2023-02-22T12:05:46;7.47;;;4.90;;
32297;SDS011;18782;48.984;8.548;2023-02-22T12:08:28;8.23;;;5.10;;
32297;SDS011;18782;48.984;8.548;2023-02-22T12:11:04;7.65;;;5.03;;
32297;SDS011;18782;48.984;8.548;2023-02-22T12:13:50;9.45;;;5.45;;
32297;SDS011;18782;48.984;8.548;2023-02-22T12:16:27;10.38;;;6.15;;
32297;SDS011;18782;48.984;8.548;2023-02-22T12:19:09;8.48;;;5.57;;
32297;SDS011;18782;48.984;8.548;2023-02-22T12:21:42;10.73;;;5.22;;
32297;SDS011;18782;48.984;8.548;2023-02-22T12:24:13;8.23;;;5.63;;
32297;SDS011;18782;48.984;8.548;2023-02-22T12:26:45;7.95;;;5.05;;
32297;SDS011;18782;48.984;8.548;2023-02-22T12:29:18;10.68;;;6.03;;
32297;SDS011;18782;48.984;8.548;2023-02-22T12:31:54;8.88;;;5.68;;
32297;SDS011;18782;48.984;8.548;2023-02-22T12:34:29;8.57;;;5.65;;
32297;SDS011;18782;48.984;8.548;2023-02-22T12:37:04;8.50;;;5.60;;
32297;SDS011;18782;48.984;8.548;2023-02-22T12:39:44;9.70;;;5.57;;
32297;SDS011;18782;48.984;8.548;2023-02-22T12:42:21;10.63;;;5.75;;
32297;SDS011;18782;48.984;8.548;2023-02-22T12:44:57;8.80;;;5.55;;
32297;SDS011;18782;48.984;8.548;2023-02-22T12:47:34;8.55;;;6.00;;
32297;SDS011;18782;48.984;8.548;2023-02-22T12:50:14;8.90;;;6.10;;
32297;SDS011;18782;48.984;8.548;2023-02-22T12:52:46;13.02;;;6.57;;
32297;SDS011;18782;48.984;8.548;2023-02-22T12:55:19;11.07;;;5.70;;
32297;SDS011;18782;48.984;8.548;2023-02-22T12:57:52;9.57;;;6.40;;
32297;SDS011;18782;48.984;8.548;2023-02-22T13:00:25;8.23;;;5.75;;
32297;SDS011;18782;48.984;8.548;2023-02-22T13:02:55;8.88;;;5.72;;
32297;SDS011;18782;48.984;8.548;2023-02-22T13:05:29;10.60;;;6.40;;
32297;SDS011;18782;48.984;8.548;2023-02-22T13:08:05;12.23;;;7.38;;
32297;SDS011;18782;48.984;8.548;2023-02-22T13:13:43;8.43;;;5.97;;
32297;SDS011;18782;48.984;8.548;2023-02-22T13:16:26;11.07;;;6.70;;
32297;SDS011;18782;48.984;8.548;2023-02-22T13:19:05;10.15;;;6.38;;
32297;SDS011;18782;48.984;8.548;2023-02-22T13:21:43;11.32;;;6.10;;
32297;SDS011;18782;48.984;8.548;2023-02-22T13:24:17;11.13;;;7.00;;
32297;SDS011;18782;48.984;8.548;2023-02-22T13:26:52;11.70;;;7.53;;
32297;SDS011;18782;48.984;8.548;2023-02-22T13:29:26;9.82;;;6.38;;
32297;SDS011;18782;48.984;8.548;2023-02-22T13:32:01;9.32;;;5.82;;
32297;SDS011;18782;48.984;8.548;2023-02-22T13:37:52;9.60;;;6.80;;
32297;SDS011;18782;48.984;8.548;2023-02-22T13:43:57;9.13;;;6.30;;
32297;SDS011;18782;48.984;8.548;2023-02-22T13:46:42;10.80;;;6.65;;
32297;SDS011;18782;48.984;8.548;2023-02-22T13:49:46;12.18;;;6.60;;
32297;SDS011;18782;48.984;8.548;2023-02-22T13:52:25;8.93;;;5.63;;
32297;SDS011;18782;48.984;8.548;2023-02-22T13:54:58;11.63;;;7.07;;
32297;SDS011;18782;48.984;8.548;2023-02-22T13:57:28;11.25;;;7.10;;
32297;SDS011;18782;48.984;8.548;2023-02-22T14:00:18;13.65;;;7.57;;
32297;SDS011;18782;48.984;8.548;2023-02-22T14:02:58;11.90;;;7.30;;
32297;SDS011;18782;48.984;8.548;2023-02-22T14:05:36;13.80;;;6.90;;
32297;SDS011;18782;48.984;8.548;2023-02-22T14:08:39;11.43;;;6.90;;
32297;SDS011;18782;48.984;8.548;2023-02-22T14:14:15;11.88;;;7.35;;
32297;SDS011;18782;48.984;8.548;2023-02-22T14:16:46;14.48;;;7.65;;
32297;SDS011;18782;48.984;8.548;2023-02-22T14:19:59;12.20;;;7.60;;
32297;SDS011;18782;48.984;8.548;2023-02-22T14:22:29;10.32;;;7.15;;
32297;SDS011;18782;48.984;8.548;2023-02-22T14:24:57;11.05;;;7.22;;
32297;SDS011;18782;48.984;8.548;2023-02-22T14:27:32;9.95;;;6.47;;
32297;SDS011;18782;48.984;8.548;2023-02-22T14:30:20;13.43;;;8.07;;
32297;SDS011;18782;48.984;8.548;2023-02-22T14:32:51;10.68;;;6.82;;
32297;SDS011;18782;48.984;8.548;2023-02-22T14:35:19;13.13;;;7.68;;
32297;SDS011;18782;48.984;8.548;2023-02-22T14:37:57;10.82;;;6.97;;
32297;SDS011;18782;48.984;8.548;2023-02-22T14:40:26;13.35;;;7.57;;
32297;SDS011;18782;48.984;8.548;2023-02-22T14:42:58;11.05;;;7.18;;
32297;SDS011;18782;48.984;8.548;2023-02-22T14:45:31;12.20;;;6.60;;
32297;SDS011;18782;48.984;8.548;2023-02-22T14:48:03;13.82;;;7.57;;
32297;SDS011;18782;48.984;8.548;2023-02-22T14:50:40;12.82;;;8.43;;
32297;SDS011;18782;48.984;8.548;2023-02-22T14:53:17;14.90;;;8.43;;
32297;SDS011;18782;48.984;8.548;2023-02-22T14:55:52;14.48;;;8.50;;
32297;SDS011;18782;48.984;8.548;2023-02-22T14:58:24;15.07;;;8.57;;
32297;SDS011;18782;48.984;8.548;2023-02-22T15:01:01;16.45;;;8.63;;
32297;SDS011;18782;48.984;8.548;2023-02-22T15:03:45;13.15;;;8.68;;
32297;SDS011;18782;48.984;8.548;2023-02-22T15:06:22;12.60;;;8.50;;
32297;SDS011;18782;48.984;8.548;2023-02-22T15:09:04;12.75;;;8.05;;
32297;SDS011;18782;48.984;8.548;2023-02-22T15:11:33;15.05;;;8.38;;
32297;SDS011;18782;48.984;8.548;2023-02-22T15:14:01;12.43;;;7.72;;
32297;SDS011;18782;48.984;8.548;2023-02-22T15:16:54;12.07;;;8.52;;
32297;SDS011;18782;48.984;8.548;2023-02-22T15:19:24;12.70;;;8.93;;
32297;SDS011;18782;48.984;8.548;2023-02-22T15:21:54;13.85;;;9.20;;
32297;SDS011;18782;48.984;8.548;2023-02-22T15:24:23;13.10;;;8.55;;
32297;SDS011;18782;48.984;8.548;2023-02-22T15:26:53;11.98;;;8.60;;
32297;SDS011;18782;48.984;8.548;2023-02-22T15:29:35;13.70;;;8.18;;
32297;SDS011;18782;48.984;8.548;2023-02-22T15:32:18;9.45;;;7.10;;
32297;SDS011;18782;48.984;8.548;2023-02-22T15:35:04;14.82;;;8.73;;
32297;SDS011;18782;48.984;8.548;2023-02-22T15:37:38;15.40;;;9.23;;